Scot Munchen — 9HA4098 — position and weather

sailwx.info

Track history (hours):
 
Tides and Currents Weather Stations Pressure Air Temp Water Temp Dewpoint Dewpoint Depression Visibility Wind Speed Wind Dir Waves Ship Positions

Scot Munchen

Last reported at 2018-Jul-23 15:00 UTC. Time now 2018-Jul-23 15:08 UTC.
Position N 43°15' E 004°60'.

Length 117 m; draft 6.6 m.

Type: Tanker. MMSI: 249068000.

Date/timePositionNaut miles runAvg speedWind from/ knotsBaromVisibWave heightAir tempDewpointWater temp
2018-Jul-23 15:00N 43°15' E 004°60'611.9
2018-Jul-23 14:30N 43°21' E 004°58'4 8.6
2018-Jul-23 14:00N 43°24' E 004°53'1 0.1
2018-Jul-22 23:40N 43°25' E 004°53'0 0.0
2018-Jul-22 14:43N 43°25' E 004°53'0 0.0
2018-Jul-22 14:10N 43°25' E 004°53'0 0.0
2018-Jul-22 13:58N 43°25' E 004°53'0 0.0
2018-Jul-22 13:28N 43°25' E 004°53'0 0.0
2018-Jul-22 12:52N 43°25' E 004°53'0 0.0
2018-Jul-22 10:46N 43°25' E 004°53'0 0.0
2018-Jul-22 10:03N 43°25' E 004°53'0 0.3
2018-Jul-22 09:58N 43°25' E 004°53'2 5.0
2018-Jul-22 09:30N 43°23' E 004°55'5 9.1
2018-Jul-22 09:00N 43°20' E 004°59'611.1
2018-Jul-22 08:29N 43°14' E 005°02'3 0.1
2018-Jul-21 11:38N 43°11' E 005°01'212.2
2018-Jul-21 11:30N 43°13' E 005°00'612.2
2018-Jul-21 11:00N 43°19' E 004°58'5 9.9
2018-Jul-21 10:30N 43°23' E 004°55'2 0.1
2018-Jul-19 21:23N 43°25' E 004°53'0 0.6
2018-Jul-19 21:00N 43°25' E 004°53'4 7.9
2018-Jul-19 20:30N 43°23' E 004°58'4 8.9
2018-Jul-19 20:00N 43°19' E 004°60'3 6.2
2018-Jul-19 19:30N 43°16' E 005°01'3 6.5
2018-Jul-19 19:00N 43°13' E 005°02'6 6.3
2018-Jul-19 18:06N 43°07' E 005°02'1 7.0
2018-Jul-19 17:58N 43°06' E 005°02'4 8.3
2018-Jul-19 17:30N 43°02' E 005°01'4 8.2
2018-Jul-19 17:00N 42°58' E 005°01'16 5.2
2018-Jul-19 14:00N 42°43' E 004°59'0 0.4
2018-Jul-19 13:28N 42°42' E 004°59'0 0.4
2018-Jul-19 13:00N 42°42' E 004°59'0 0.4
2018-Jul-19 12:30N 42°42' E 004°59'4 0.2
2018-Jul-18 20:25N 42°46' E 004°58'0 0.4
2018-Jul-18 20:00N 42°46' E 004°58'0 0.0
2018-Jul-18 15:19N 42°46' E 004°58'0 0.0
2018-Jul-18 15:00N 42°46' E 004°58'0 0.1
2018-Jul-18 14:25N 42°46' E 004°58'27 9.0
2018-Jul-18 11:25N 43°13' E 005°01'910.2
2018-Jul-18 10:30N 43°22' E 004°57'4 8.9
2018-Jul-18 10:00N 43°25' E 004°53'0 0.0
2018-Jul-18 00:02N 43°25' E 004°53'0 0.0
2018-Jul-17 23:56N 43°25' E 004°53'0 0.0
2018-Jul-17 23:26N 43°25' E 004°53'0 0.0
2018-Jul-17 21:31N 43°25' E 004°53'0 1.5
2018-Jul-17 21:30N 43°25' E 004°53'4 7.7
2018-Jul-17 21:00N 43°23' E 004°57'4 8.5
2018-Jul-17 20:30N 43°19' E 004°59'5 9.4
2018-Jul-17 19:59N 43°14' E 005°02'5 9.5
2018-Jul-17 19:26N 43°09' E 005°03'6 9.9
2018-Jul-17 18:51N 43°03' E 005°02'4510.1
2018-Jul-17 14:27N 42°19' E 004°58'510.6
2018-Jul-17 14:00N 42°14' E 004°57'510.3
2018-Jul-17 13:30N 42°09' E 004°56'5 9.8
2018-Jul-17 13:00N 42°04' E 004°56'5 9.4
2018-Jul-17 12:30N 41°59' E 004°55'  
Track history (hours):
 
Tides and Currents Weather Stations Pressure Air Temp Water Temp Dewpoint Dewpoint Depression Visibility Wind Speed Wind Dir Waves Ship Positions

Scot Munchen

Last reported at 2018-Jul-23 15:00 UTC. Time now 2018-Jul-23 15:08 UTC.
Position N 43°15' E 004°60'.

Length 117 m; draft 6.6 m.

Type: Tanker. MMSI: 249068000.

Date/timePositionNaut miles runAvg speedWind from/ knotsBaromVisibWave heightAir tempDewpointWater temp
2018-Jul-23 15:00N 43°15' E 004°60'611.9
2018-Jul-23 14:30N 43°21' E 004°58'4 8.6
2018-Jul-23 14:00N 43°24' E 004°53'1 0.1
2018-Jul-22 23:40N 43°25' E 004°53'0 0.0
2018-Jul-22 14:43N 43°25' E 004°53'0 0.0
2018-Jul-22 14:10N 43°25' E 004°53'0 0.0
2018-Jul-22 13:58N 43°25' E 004°53'0 0.0
2018-Jul-22 13:28N 43°25' E 004°53'0 0.0
2018-Jul-22 12:52N 43°25' E 004°53'0 0.0
2018-Jul-22 10:46N 43°25' E 004°53'0 0.0
2018-Jul-22 10:03N 43°25' E 004°53'0 0.3
2018-Jul-22 09:58N 43°25' E 004°53'2 5.0
2018-Jul-22 09:30N 43°23' E 004°55'5 9.1
2018-Jul-22 09:00N 43°20' E 004°59'611.1
2018-Jul-22 08:29N 43°14' E 005°02'3 0.1
2018-Jul-21 11:38N 43°11' E 005°01'212.2
2018-Jul-21 11:30N 43°13' E 005°00'612.2
2018-Jul-21 11:00N 43°19' E 004°58'5 9.9
2018-Jul-21 10:30N 43°23' E 004°55'2 0.1
2018-Jul-19 21:23N 43°25' E 004°53'0 0.6
2018-Jul-19 21:00N 43°25' E 004°53'4 7.9
2018-Jul-19 20:30N 43°23' E 004°58'4 8.9
2018-Jul-19 20:00N 43°19' E 004°60'3 6.2
2018-Jul-19 19:30N 43°16' E 005°01'3 6.5
2018-Jul-19 19:00N 43°13' E 005°02'6 6.3
2018-Jul-19 18:06N 43°07' E 005°02'1 7.0
2018-Jul-19 17:58N 43°06' E 005°02'4 8.3
2018-Jul-19 17:30N 43°02' E 005°01'4 8.2
2018-Jul-19 17:00N 42°58' E 005°01'16 5.2
2018-Jul-19 14:00N 42°43' E 004°59'0 0.4
2018-Jul-19 13:28N 42°42' E 004°59'0 0.4
2018-Jul-19 13:00N 42°42' E 004°59'0 0.4
2018-Jul-19 12:30N 42°42' E 004°59'4 0.2
2018-Jul-18 20:25N 42°46' E 004°58'0 0.4
2018-Jul-18 20:00N 42°46' E 004°58'0 0.0
2018-Jul-18 15:19N 42°46' E 004°58'0 0.0
2018-Jul-18 15:00N 42°46' E 004°58'0 0.1
2018-Jul-18 14:25N 42°46' E 004°58'27 9.0
2018-Jul-18 11:25N 43°13' E 005°01'910.2
2018-Jul-18 10:30N 43°22' E 004°57'4 8.9
2018-Jul-18 10:00N 43°25' E 004°53'0 0.0
2018-Jul-18 00:02N 43°25' E 004°53'0 0.0
2018-Jul-17 23:56N 43°25' E 004°53'0 0.0
2018-Jul-17 23:26N 43°25' E 004°53'0 0.0
2018-Jul-17 21:31N 43°25' E 004°53'0 1.5
2018-Jul-17 21:30N 43°25' E 004°53'4 7.7
2018-Jul-17 21:00N 43°23' E 004°57'4 8.5
2018-Jul-17 20:30N 43°19' E 004°59'5 9.4
2018-Jul-17 19:59N 43°14' E 005°02'5 9.5
2018-Jul-17 19:26N 43°09' E 005°03'6 9.9
2018-Jul-17 18:51N 43°03' E 005°02'4510.1
2018-Jul-17 14:27N 42°19' E 004°58'510.6
2018-Jul-17 14:00N 42°14' E 004°57'510.3
2018-Jul-17 13:30N 42°09' E 004°56'5 9.8
2018-Jul-17 13:00N 42°04' E 004°56'5 9.4
2018-Jul-17 12:30N 41°59' E 004°55'  

Dump ship's entire track history